aviador You're here:

OIAH Decoded Metar

GACHSARAN in IRAN
Report Time2017-10-22 17:00:00
UTC Time2017-10-22 17:09:52
Flight Rules vfr VFR
WindCalm
Visibility9999 m
Phenomena:N/A
Clouds:N/A
Expected CloudBase > 10,400 ft AGL from Temp-Dew spread
CeilingNone
Temp21°C (ISA +11)
Dew Point-5°C (17% RH)
AAT18.4°C
QNH1014 hPa
Density Alt3,704 ft
Elevation2,421 ft
Report Wrong Elevation
Raw Report
METAR OIAH 221700Z 00000KT CAVOK 21/M05 Q1014=

Extra information for OIAH:More info

Metar Taf Metar & Taf Last 4 Metars F.Rules Stats Wind Profile Meteogram Temp Stats Airport Information Weather charts Add Link Nearby VenuesMetar ALERT Operation Metar Decoded Social comments